sensor_id;sensor_type;location;lat;lon;timestamp;P1;durP1;ratioP1;P2;durP2;ratioP2
26536;SDS011;14204;51.262;5.488;2024-01-11T00:02:14;44.50;;;20.13;;
26536;SDS011;14204;51.262;5.488;2024-01-11T00:04:40;44.00;;;20.55;;
26536;SDS011;14204;51.262;5.488;2024-01-11T00:07:05;47.97;;;22.00;;
26536;SDS011;14204;51.262;5.488;2024-01-11T00:09:31;48.40;;;21.67;;
26536;SDS011;14204;51.262;5.488;2024-01-11T00:11:57;48.63;;;20.88;;
26536;SDS011;14204;51.262;5.488;2024-01-11T00:14:22;50.00;;;22.38;;
26536;SDS011;14204;51.262;5.488;2024-01-11T00:16:48;43.75;;;20.88;;
26536;SDS011;14204;51.262;5.488;2024-01-11T00:19:14;50.00;;;22.90;;
26536;SDS011;14204;51.262;5.488;2024-01-11T00:21:40;45.58;;;22.77;;
26536;SDS011;14204;51.262;5.488;2024-01-11T00:24:05;49.67;;;22.63;;
26536;SDS011;14204;51.262;5.488;2024-01-11T00:26:31;49.22;;;22.65;;
26536;SDS011;14204;51.262;5.488;2024-01-11T00:28:57;50.55;;;22.00;;
26536;SDS011;14204;51.262;5.488;2024-01-11T00:31:22;48.08;;;22.20;;
26536;SDS011;14204;51.262;5.488;2024-01-11T00:33:48;47.08;;;22.05;;
26536;SDS011;14204;51.262;5.488;2024-01-11T00:36:18;55.83;;;23.17;;
26536;SDS011;14204;51.262;5.488;2024-01-11T00:38:45;42.58;;;21.80;;
26536;SDS011;14204;51.262;5.488;2024-01-11T00:41:10;55.58;;;23.67;;
26536;SDS011;14204;51.262;5.488;2024-01-11T00:43:36;46.03;;;23.70;;
26536;SDS011;14204;51.262;5.488;2024-01-11T00:46:02;54.15;;;23.05;;
26536;SDS011;14204;51.262;5.488;2024-01-11T00:48:28;55.25;;;23.58;;
26536;SDS011;14204;51.262;5.488;2024-01-11T00:50:53;47.75;;;22.50;;
26536;SDS011;14204;51.262;5.488;2024-01-11T00:53:19;50.78;;;21.23;;
26536;SDS011;14204;51.262;5.488;2024-01-11T00:55:45;51.40;;;22.48;;
26536;SDS011;14204;51.262;5.488;2024-01-11T00:58:11;52.60;;;23.77;;
26536;SDS011;14204;51.262;5.488;2024-01-11T01:00:36;45.78;;;22.77;;
26536;SDS011;14204;51.262;5.488;2024-01-11T01:03:02;49.72;;;22.65;;
26536;SDS011;14204;51.262;5.488;2024-01-11T01:05:28;61.53;;;25.05;;
26536;SDS011;14204;51.262;5.488;2024-01-11T01:07:54;52.15;;;25.02;;
26536;SDS011;14204;51.262;5.488;2024-01-11T01:10:20;52.97;;;23.65;;
26536;SDS011;14204;51.262;5.488;2024-01-11T01:12:45;54.42;;;23.95;;
26536;SDS011;14204;51.262;5.488;2024-01-11T01:15:11;50.50;;;24.33;;
26536;SDS011;14204;51.262;5.488;2024-01-11T01:17:37;52.47;;;24.85;;
26536;SDS011;14204;51.262;5.488;2024-01-11T01:20:03;56.53;;;24.85;;
26536;SDS011;14204;51.262;5.488;2024-01-11T01:22:29;52.33;;;25.05;;
26536;SDS011;14204;51.262;5.488;2024-01-11T01:24:55;56.13;;;26.17;;
26536;SDS011;14204;51.262;5.488;2024-01-11T01:27:20;57.95;;;24.63;;
26536;SDS011;14204;51.262;5.488;2024-01-11T01:29:46;53.40;;;24.63;;
26536;SDS011;14204;51.262;5.488;2024-01-11T01:32:12;48.60;;;23.63;;
26536;SDS011;14204;51.262;5.488;2024-01-11T01:34:37;54.75;;;26.15;;
26536;SDS011;14204;51.262;5.488;2024-01-11T01:37:03;52.88;;;24.60;;
26536;SDS011;14204;51.262;5.488;2024-01-11T01:39:29;52.47;;;25.35;;
26536;SDS011;14204;51.262;5.488;2024-01-11T01:41:54;55.35;;;26.42;;
26536;SDS011;14204;51.262;5.488;2024-01-11T01:44:20;58.75;;;25.85;;
26536;SDS011;14204;51.262;5.488;2024-01-11T01:46:46;58.78;;;26.13;;
26536;SDS011;14204;51.262;5.488;2024-01-11T01:49:13;54.13;;;23.80;;
26536;SDS011;14204;51.262;5.488;2024-01-11T01:51:39;57.33;;;25.77;;
26536;SDS011;14204;51.262;5.488;2024-01-11T01:54:05;53.97;;;24.10;;
26536;SDS011;14204;51.262;5.488;2024-01-11T01:56:31;50.42;;;24.83;;
26536;SDS011;14204;51.262;5.488;2024-01-11T01:58:57;57.67;;;24.77;;
26536;SDS011;14204;51.262;5.488;2024-01-11T02:01:25;51.30;;;24.38;;
26536;SDS011;14204;51.262;5.488;2024-01-11T02:03:52;51.33;;;23.90;;
26536;SDS011;14204;51.262;5.488;2024-01-11T02:06:21;58.42;;;25.00;;
26536;SDS011;14204;51.262;5.488;2024-01-11T02:08:48;49.55;;;22.92;;
26536;SDS011;14204;51.262;5.488;2024-01-11T02:11:16;56.25;;;23.42;;
26536;SDS011;14204;51.262;5.488;2024-01-11T02:13:44;54.13;;;24.52;;
26536;SDS011;14204;51.262;5.488;2024-01-11T02:16:11;53.72;;;24.05;;
26536;SDS011;14204;51.262;5.488;2024-01-11T02:18:38;54.92;;;24.42;;
26536;SDS011;14204;51.262;5.488;2024-01-11T02:21:05;53.97;;;24.20;;
26536;SDS011;14204;51.262;5.488;2024-01-11T02:23:34;55.03;;;24.65;;
26536;SDS011;14204;51.262;5.488;2024-01-11T02:26:10;55.42;;;24.38;;
26536;SDS011;14204;51.262;5.488;2024-01-11T02:28:37;57.38;;;25.50;;
26536;SDS011;14204;51.262;5.488;2024-01-11T02:31:02;54.78;;;25.08;;
26536;SDS011;14204;51.262;5.488;2024-01-11T02:33:28;54.10;;;25.20;;
26536;SDS011;14204;51.262;5.488;2024-01-11T02:35:54;57.05;;;25.23;;
26536;SDS011;14204;51.262;5.488;2024-01-11T02:38:20;55.47;;;23.73;;
26536;SDS011;14204;51.262;5.488;2024-01-11T02:40:46;53.53;;;25.58;;
26536;SDS011;14204;51.262;5.488;2024-01-11T02:43:13;54.08;;;24.77;;
26536;SDS011;14204;51.262;5.488;2024-01-11T02:45:39;54.42;;;24.73;;
26536;SDS011;14204;51.262;5.488;2024-01-11T02:48:04;54.97;;;24.77;;
26536;SDS011;14204;51.262;5.488;2024-01-11T02:50:30;64.95;;;26.60;;
26536;SDS011;14204;51.262;5.488;2024-01-11T02:52:56;60.13;;;27.02;;
26536;SDS011;14204;51.262;5.488;2024-01-11T02:55:22;56.40;;;23.90;;
26536;SDS011;14204;51.262;5.488;2024-01-11T02:57:47;55.60;;;25.27;;
26536;SDS011;14204;51.262;5.488;2024-01-11T03:00:13;59.58;;;25.23;;
26536;SDS011;14204;51.262;5.488;2024-01-11T03:02:39;60.35;;;25.02;;
26536;SDS011;14204;51.262;5.488;2024-01-11T03:05:04;59.47;;;25.08;;
26536;SDS011;14204;51.262;5.488;2024-01-11T03:07:30;58.42;;;26.02;;
26536;SDS011;14204;51.262;5.488;2024-01-11T03:09:57;55.85;;;25.80;;
26536;SDS011;14204;51.262;5.488;2024-01-11T03:12:23;62.88;;;26.20;;
26536;SDS011;14204;51.262;5.488;2024-01-11T03:14:51;62.08;;;25.98;;
26536;SDS011;14204;51.262;5.488;2024-01-11T03:17:17;56.45;;;25.25;;
26536;SDS011;14204;51.262;5.488;2024-01-11T03:19:42;59.75;;;26.88;;
26536;SDS011;14204;51.262;5.488;2024-01-11T03:22:08;60.00;;;25.20;;
26536;SDS011;14204;51.262;5.488;2024-01-11T03:24:37;55.05;;;26.20;;
26536;SDS011;14204;51.262;5.488;2024-01-11T03:27:06;55.92;;;24.95;;
26536;SDS011;14204;51.262;5.488;2024-01-11T03:29:32;61.63;;;26.08;;
26536;SDS011;14204;51.262;5.488;2024-01-11T03:31:57;58.92;;;24.85;;
26536;SDS011;14204;51.262;5.488;2024-01-11T03:34:23;54.30;;;24.88;;
26536;SDS011;14204;51.262;5.488;2024-01-11T03:36:49;57.58;;;25.25;;
26536;SDS011;14204;51.262;5.488;2024-01-11T03:39:14;55.50;;;26.35;;
26536;SDS011;14204;51.262;5.488;2024-01-11T03:41:46;57.95;;;26.42;;
26536;SDS011;14204;51.262;5.488;2024-01-11T03:44:12;64.18;;;25.58;;
26536;SDS011;14204;51.262;5.488;2024-01-11T03:46:38;57.40;;;26.67;;
26536;SDS011;14204;51.262;5.488;2024-01-11T03:49:04;62.33;;;27.52;;
26536;SDS011;14204;51.262;5.488;2024-01-11T03:51:29;62.25;;;27.10;;
26536;SDS011;14204;51.262;5.488;2024-01-11T03:53:55;61.08;;;28.08;;
26536;SDS011;14204;51.262;5.488;2024-01-11T03:56:21;57.42;;;28.58;;
26536;SDS011;14204;51.262;5.488;2024-01-11T03:58:46;59.17;;;27.00;;
26536;SDS011;14204;51.262;5.488;2024-01-11T04:01:12;59.88;;;26.80;;
26536;SDS011;14204;51.262;5.488;2024-01-11T04:03:38;62.42;;;28.65;;
26536;SDS011;14204;51.262;5.488;2024-01-11T04:06:04;63.35;;;26.67;;
26536;SDS011;14204;51.262;5.488;2024-01-11T04:08:30;61.47;;;27.27;;
26536;SDS011;14204;51.262;5.488;2024-01-11T04:10:55;60.00;;;26.77;;
26536;SDS011;14204;51.262;5.488;2024-01-11T04:13:21;62.00;;;27.38;;
26536;SDS011;14204;51.262;5.488;2024-01-11T04:15:47;60.20;;;27.45;;
26536;SDS011;14204;51.262;5.488;2024-01-11T04:18:13;59.53;;;27.25;;
26536;SDS011;14204;51.262;5.488;2024-01-11T04:20:39;59.88;;;28.27;;
26536;SDS011;14204;51.262;5.488;2024-01-11T04:23:04;58.25;;;24.05;;
26536;SDS011;14204;51.262;5.488;2024-01-11T04:25:30;59.67;;;25.85;;
26536;SDS011;14204;51.262;5.488;2024-01-11T04:27:56;62.03;;;25.40;;
26536;SDS011;14204;51.262;5.488;2024-01-11T04:30:22;59.38;;;25.85;;
26536;SDS011;14204;51.262;5.488;2024-01-11T04:32:47;60.72;;;24.92;;
26536;SDS011;14204;51.262;5.488;2024-01-11T04:35:13;65.75;;;26.75;;
26536;SDS011;14204;51.262;5.488;2024-01-11T04:37:39;52.33;;;24.98;;
26536;SDS011;14204;51.262;5.488;2024-01-11T04:40:06;57.45;;;25.58;;
26536;SDS011;14204;51.262;5.488;2024-01-11T04:42:32;56.88;;;24.55;;
26536;SDS011;14204;51.262;5.488;2024-01-11T04:44:58;63.38;;;25.98;;
26536;SDS011;14204;51.262;5.488;2024-01-11T04:47:24;62.03;;;27.42;;
26536;SDS011;14204;51.262;5.488;2024-01-11T04:49:49;61.20;;;27.60;;
26536;SDS011;14204;51.262;5.488;2024-01-11T04:52:15;64.05;;;28.95;;
26536;SDS011;14204;51.262;5.488;2024-01-11T04:54:41;58.35;;;27.40;;
26536;SDS011;14204;51.262;5.488;2024-01-11T04:57:06;66.13;;;26.90;;
26536;SDS011;14204;51.262;5.488;2024-01-11T04:59:32;59.53;;;27.48;;
26536;SDS011;14204;51.262;5.488;2024-01-11T05:01:58;61.33;;;26.40;;
26536;SDS011;14204;51.262;5.488;2024-01-11T05:04:23;66.78;;;26.50;;
26536;SDS011;14204;51.262;5.488;2024-01-11T05:06:50;57.70;;;26.38;;
26536;SDS011;14204;51.262;5.488;2024-01-11T05:09:16;70.15;;;28.48;;
26536;SDS011;14204;51.262;5.488;2024-01-11T05:11:42;65.57;;;28.05;;
26536;SDS011;14204;51.262;5.488;2024-01-11T05:14:08;68.70;;;28.58;;
26536;SDS011;14204;51.262;5.488;2024-01-11T05:16:33;66.30;;;29.80;;
26536;SDS011;14204;51.262;5.488;2024-01-11T05:19:00;68.75;;;31.27;;
26536;SDS011;14204;51.262;5.488;2024-01-11T05:21:26;66.40;;;29.15;;
26536;SDS011;14204;51.262;5.488;2024-01-11T05:23:52;68.45;;;28.67;;
26536;SDS011;14204;51.262;5.488;2024-01-11T05:26:18;70.55;;;29.48;;
26536;SDS011;14204;51.262;5.488;2024-01-11T05:28:44;70.65;;;30.48;;
26536;SDS011;14204;51.262;5.488;2024-01-11T05:31:10;67.03;;;29.27;;
26536;SDS011;14204;51.262;5.488;2024-01-11T05:33:37;60.88;;;28.67;;
26536;SDS011;14204;51.262;5.488;2024-01-11T05:36:04;65.03;;;29.88;;
26536;SDS011;14204;51.262;5.488;2024-01-11T05:38:30;63.50;;;29.05;;
26536;SDS011;14204;51.262;5.488;2024-01-11T05:40:56;64.50;;;28.88;;
26536;SDS011;14204;51.262;5.488;2024-01-11T05:43:22;65.90;;;28.48;;
26536;SDS011;14204;51.262;5.488;2024-01-11T05:45:48;70.10;;;29.65;;
26536;SDS011;14204;51.262;5.488;2024-01-11T05:48:16;61.53;;;26.95;;
26536;SDS011;14204;51.262;5.488;2024-01-11T05:50:42;63.60;;;25.92;;
26536;SDS011;14204;51.262;5.488;2024-01-11T05:53:11;66.97;;;28.95;;
26536;SDS011;14204;51.262;5.488;2024-01-11T05:55:38;64.82;;;27.10;;
26536;SDS011;14204;51.262;5.488;2024-01-11T05:58:04;63.65;;;27.98;;
26536;SDS011;14204;51.262;5.488;2024-01-11T06:00:29;61.85;;;26.35;;
26536;SDS011;14204;51.262;5.488;2024-01-11T06:02:55;63.97;;;26.08;;
26536;SDS011;14204;51.262;5.488;2024-01-11T06:05:21;61.08;;;26.83;;
26536;SDS011;14204;51.262;5.488;2024-01-11T06:07:47;62.53;;;26.58;;
26536;SDS011;14204;51.262;5.488;2024-01-11T06:10:13;60.83;;;25.80;;
26536;SDS011;14204;51.262;5.488;2024-01-11T06:12:39;62.78;;;26.42;;
26536;SDS011;14204;51.262;5.488;2024-01-11T06:15:06;68.32;;;28.13;;
26536;SDS011;14204;51.262;5.488;2024-01-11T06:17:32;65.82;;;28.20;;
26536;SDS011;14204;51.262;5.488;2024-01-11T06:19:58;60.13;;;26.88;;
26536;SDS011;14204;51.262;5.488;2024-01-11T06:22:24;65.80;;;27.15;;
26536;SDS011;14204;51.262;5.488;2024-01-11T06:24:49;67.88;;;28.90;;
26536;SDS011;14204;51.262;5.488;2024-01-11T06:27:15;61.85;;;26.80;;
26536;SDS011;14204;51.262;5.488;2024-01-11T06:29:41;62.20;;;26.40;;
26536;SDS011;14204;51.262;5.488;2024-01-11T06:32:07;67.72;;;28.42;;
26536;SDS011;14204;51.262;5.488;2024-01-11T06:34:34;67.10;;;29.30;;
26536;SDS011;14204;51.262;5.488;2024-01-11T06:37:00;64.57;;;27.70;;
26536;SDS011;14204;51.262;5.488;2024-01-11T06:39:28;62.50;;;25.85;;
26536;SDS011;14204;51.262;5.488;2024-01-11T06:41:54;59.92;;;25.77;;
26536;SDS011;14204;51.262;5.488;2024-01-11T06:44:20;63.28;;;28.73;;
26536;SDS011;14204;51.262;5.488;2024-01-11T06:46:46;62.65;;;26.95;;
26536;SDS011;14204;51.262;5.488;2024-01-11T06:49:12;67.78;;;28.30;;
26536;SDS011;14204;51.262;5.488;2024-01-11T06:51:38;64.07;;;27.88;;
26536;SDS011;14204;51.262;5.488;2024-01-11T06:54:04;66.72;;;28.15;;
26536;SDS011;14204;51.262;5.488;2024-01-11T06:56:30;69.60;;;28.45;;
26536;SDS011;14204;51.262;5.488;2024-01-11T06:58:56;60.28;;;25.45;;
26536;SDS011;14204;51.262;5.488;2024-01-11T07:01:21;59.55;;;26.67;;
26536;SDS011;14204;51.262;5.488;2024-01-11T07:03:48;56.25;;;25.73;;
26536;SDS011;14204;51.262;5.488;2024-01-11T07:06:14;67.88;;;26.05;;
26536;SDS011;14204;51.262;5.488;2024-01-11T07:08:40;66.03;;;27.60;;
26536;SDS011;14204;51.262;5.488;2024-01-11T07:11:06;67.57;;;27.60;;
26536;SDS011;14204;51.262;5.488;2024-01-11T07:13:32;66.53;;;27.95;;
26536;SDS011;14204;51.262;5.488;2024-01-11T07:15:58;68.28;;;28.13;;
26536;SDS011;14204;51.262;5.488;2024-01-11T07:18:25;64.22;;;26.17;;
26536;SDS011;14204;51.262;5.488;2024-01-11T07:20:51;61.83;;;25.85;;
26536;SDS011;14204;51.262;5.488;2024-01-11T07:23:17;61.10;;;26.38;;
26536;SDS011;14204;51.262;5.488;2024-01-11T07:25:43;63.08;;;26.83;;
26536;SDS011;14204;51.262;5.488;2024-01-11T07:28:09;59.40;;;26.17;;
26536;SDS011;14204;51.262;5.488;2024-01-11T07:30:34;60.88;;;26.50;;
26536;SDS011;14204;51.262;5.488;2024-01-11T07:33:00;57.42;;;24.80;;
26536;SDS011;14204;51.262;5.488;2024-01-11T07:35:26;63.92;;;26.02;;
26536;SDS011;14204;51.262;5.488;2024-01-11T07:37:52;65.18;;;26.65;;
26536;SDS011;14204;51.262;5.488;2024-01-11T07:40:19;66.60;;;25.98;;
26536;SDS011;14204;51.262;5.488;2024-01-11T07:42:45;66.97;;;28.55;;
26536;SDS011;14204;51.262;5.488;2024-01-11T07:45:11;66.38;;;28.80;;
26536;SDS011;14204;51.262;5.488;2024-01-11T07:47:37;65.70;;;28.60;;
26536;SDS011;14204;51.262;5.488;2024-01-11T07:50:04;62.30;;;27.70;;
26536;SDS011;14204;51.262;5.488;2024-01-11T07:52:32;63.55;;;28.73;;
26536;SDS011;14204;51.262;5.488;2024-01-11T07:54:58;71.63;;;28.98;;
26536;SDS011;14204;51.262;5.488;2024-01-11T07:57:31;66.70;;;27.92;;
26536;SDS011;14204;51.262;5.488;2024-01-11T07:59:58;59.58;;;26.45;;
26536;SDS011;14204;51.262;5.488;2024-01-11T08:02:24;63.10;;;27.50;;
26536;SDS011;14204;51.262;5.488;2024-01-11T08:04:50;62.60;;;26.10;;
26536;SDS011;14204;51.262;5.488;2024-01-11T08:07:16;61.58;;;25.85;;
26536;SDS011;14204;51.262;5.488;2024-01-11T08:09:42;64.28;;;26.77;;
26536;SDS011;14204;51.262;5.488;2024-01-11T08:12:11;63.13;;;27.15;;
26536;SDS011;14204;51.262;5.488;2024-01-11T08:14:38;64.38;;;27.58;;
26536;SDS011;14204;51.262;5.488;2024-01-11T08:17:04;66.07;;;29.58;;
26536;SDS011;14204;51.262;5.488;2024-01-11T08:19:30;63.38;;;29.10;;
26536;SDS011;14204;51.262;5.488;2024-01-11T08:21:57;67.18;;;29.70;;
26536;SDS011;14204;51.262;5.488;2024-01-11T08:24:23;63.95;;;30.08;;
26536;SDS011;14204;51.262;5.488;2024-01-11T08:26:50;65.72;;;28.55;;
26536;SDS011;14204;51.262;5.488;2024-01-11T08:29:16;62.75;;;26.73;;
26536;SDS011;14204;51.262;5.488;2024-01-11T08:31:44;65.88;;;27.65;;
26536;SDS011;14204;51.262;5.488;2024-01-11T08:34:11;70.03;;;28.88;;
26536;SDS011;14204;51.262;5.488;2024-01-11T08:36:36;69.15;;;28.70;;
26536;SDS011;14204;51.262;5.488;2024-01-11T08:39:04;66.93;;;27.02;;
26536;SDS011;14204;51.262;5.488;2024-01-11T08:41:37;59.13;;;26.75;;
26536;SDS011;14204;51.262;5.488;2024-01-11T08:44:03;59.92;;;27.55;;
26536;SDS011;14204;51.262;5.488;2024-01-11T08:46:32;61.05;;;27.38;;
26536;SDS011;14204;51.262;5.488;2024-01-11T08:48:59;65.80;;;27.00;;
26536;SDS011;14204;51.262;5.488;2024-01-11T08:51:30;64.45;;;26.00;;
26536;SDS011;14204;51.262;5.488;2024-01-11T08:54:00;62.60;;;26.00;;
26536;SDS011;14204;51.262;5.488;2024-01-11T08:56:26;59.72;;;24.48;;
26536;SDS011;14204;51.262;5.488;2024-01-11T08:58:53;66.18;;;26.70;;
26536;SDS011;14204;51.262;5.488;2024-01-11T09:01:18;59.50;;;26.73;;
26536;SDS011;14204;51.262;5.488;2024-01-11T09:03:45;56.03;;;27.13;;
26536;SDS011;14204;51.262;5.488;2024-01-11T09:06:13;59.58;;;24.88;;
26536;SDS011;14204;51.262;5.488;2024-01-11T09:08:39;61.90;;;26.40;;
26536;SDS011;14204;51.262;5.488;2024-01-11T09:11:06;59.70;;;26.40;;
26536;SDS011;14204;51.262;5.488;2024-01-11T09:13:32;59.70;;;27.90;;
26536;SDS011;14204;51.262;5.488;2024-01-11T09:15:57;63.78;;;28.60;;
26536;SDS011;14204;51.262;5.488;2024-01-11T09:18:23;66.15;;;30.70;;
26536;SDS011;14204;51.262;5.488;2024-01-11T09:20:49;59.97;;;26.27;;
26536;SDS011;14204;51.262;5.488;2024-01-11T09:23:15;59.17;;;26.40;;
26536;SDS011;14204;51.262;5.488;2024-01-11T09:25:41;61.75;;;27.52;;
26536;SDS011;14204;51.262;5.488;2024-01-11T09:28:07;60.60;;;27.38;;
26536;SDS011;14204;51.262;5.488;2024-01-11T09:30:33;66.55;;;29.08;;
26536;SDS011;14204;51.262;5.488;2024-01-11T09:32:59;60.75;;;28.17;;
26536;SDS011;14204;51.262;5.488;2024-01-11T09:35:25;59.88;;;25.92;;
26536;SDS011;14204;51.262;5.488;2024-01-11T09:37:51;56.85;;;25.92;;
26536;SDS011;14204;51.262;5.488;2024-01-11T09:40:17;58.28;;;24.70;;
26536;SDS011;14204;51.262;5.488;2024-01-11T09:42:43;58.97;;;26.05;;
26536;SDS011;14204;51.262;5.488;2024-01-11T09:45:09;59.10;;;25.27;;
26536;SDS011;14204;51.262;5.488;2024-01-11T09:47:40;57.03;;;26.15;;
26536;SDS011;14204;51.262;5.488;2024-01-11T09:50:07;57.08;;;26.52;;
26536;SDS011;14204;51.262;5.488;2024-01-11T09:52:33;61.67;;;24.30;;
26536;SDS011;14204;51.262;5.488;2024-01-11T09:55:00;57.25;;;26.48;;
26536;SDS011;14204;51.262;5.488;2024-01-11T09:57:28;53.80;;;26.73;;
26536;SDS011;14204;51.262;5.488;2024-01-11T09:59:55;53.55;;;26.15;;
26536;SDS011;14204;51.262;5.488;2024-01-11T10:02:25;54.80;;;24.20;;
26536;SDS011;14204;51.262;5.488;2024-01-11T10:04:54;60.97;;;28.63;;
26536;SDS011;14204;51.262;5.488;2024-01-11T10:07:21;59.50;;;26.50;;
26536;SDS011;14204;51.262;5.488;2024-01-11T10:09:48;51.42;;;25.58;;
26536;SDS011;14204;51.262;5.488;2024-01-11T10:12:15;61.63;;;29.80;;
26536;SDS011;14204;51.262;5.488;2024-01-11T10:14:42;61.45;;;27.92;;
26536;SDS011;14204;51.262;5.488;2024-01-11T10:17:08;56.75;;;27.75;;
26536;SDS011;14204;51.262;5.488;2024-01-11T10:19:33;58.50;;;27.23;;
26536;SDS011;14204;51.262;5.488;2024-01-11T10:21:59;57.30;;;26.75;;
26536;SDS011;14204;51.262;5.488;2024-01-11T10:24:25;61.22;;;26.77;;
26536;SDS011;14204;51.262;5.488;2024-01-11T10:26:51;54.53;;;26.40;;
26536;SDS011;14204;51.262;5.488;2024-01-11T10:29:20;54.42;;;26.63;;
26536;SDS011;14204;51.262;5.488;2024-01-11T10:31:47;54.67;;;26.50;;
26536;SDS011;14204;51.262;5.488;2024-01-11T10:34:12;57.88;;;27.88;;
26536;SDS011;14204;51.262;5.488;2024-01-11T10:36:38;61.65;;;24.45;;
26536;SDS011;14204;51.262;5.488;2024-01-11T10:39:05;51.53;;;23.88;;
26536;SDS011;14204;51.262;5.488;2024-01-11T10:41:39;50.33;;;23.73;;
26536;SDS011;14204;51.262;5.488;2024-01-11T10:44:27;55.40;;;25.95;;
26536;SDS011;14204;51.262;5.488;2024-01-11T10:46:55;49.67;;;23.95;;
26536;SDS011;14204;51.262;5.488;2024-01-11T10:49:22;49.22;;;24.75;;
26536;SDS011;14204;51.262;5.488;2024-01-11T10:51:56;48.95;;;25.30;;
26536;SDS011;14204;51.262;5.488;2024-01-11T10:54:25;55.75;;;25.23;;
26536;SDS011;14204;51.262;5.488;2024-01-11T10:56:53;52.63;;;25.10;;
26536;SDS011;14204;51.262;5.488;2024-01-11T10:59:20;51.42;;;25.35;;
26536;SDS011;14204;51.262;5.488;2024-01-11T11:01:54;51.70;;;25.00;;
26536;SDS011;14204;51.262;5.488;2024-01-11T11:04:22;54.90;;;25.80;;
26536;SDS011;14204;51.262;5.488;2024-01-11T11:06:52;52.40;;;24.60;;
26536;SDS011;14204;51.262;5.488;2024-01-11T11:09:22;48.20;;;23.55;;
26536;SDS011;14204;51.262;5.488;2024-01-11T11:11:49;45.80;;;23.40;;
26536;SDS011;14204;51.262;5.488;2024-01-11T11:14:16;50.28;;;23.90;;
26536;SDS011;14204;51.262;5.488;2024-01-11T11:16:43;47.72;;;22.77;;
26536;SDS011;14204;51.262;5.488;2024-01-11T11:19:10;44.78;;;23.73;;
26536;SDS011;14204;51.262;5.488;2024-01-11T11:21:43;49.45;;;22.92;;
26536;SDS011;14204;51.262;5.488;2024-01-11T11:24:10;45.80;;;22.58;;
26536;SDS011;14204;51.262;5.488;2024-01-11T11:26:37;43.67;;;22.65;;
26536;SDS011;14204;51.262;5.488;2024-01-11T11:29:03;45.45;;;21.65;;
26536;SDS011;14204;51.262;5.488;2024-01-11T11:31:36;49.70;;;23.10;;
26536;SDS011;14204;51.262;5.488;2024-01-11T11:34:11;46.60;;;22.60;;
26536;SDS011;14204;51.262;5.488;2024-01-11T11:36:39;47.38;;;22.85;;
26536;SDS011;14204;51.262;5.488;2024-01-11T11:39:09;48.10;;;21.15;;
26536;SDS011;14204;51.262;5.488;2024-01-11T11:41:36;44.38;;;20.83;;
26536;SDS011;14204;51.262;5.488;2024-01-11T11:44:04;43.30;;;21.17;;
26536;SDS011;14204;51.262;5.488;2024-01-11T11:46:31;39.58;;;20.52;;
26536;SDS011;14204;51.262;5.488;2024-01-11T11:48:58;44.58;;;21.25;;
26536;SDS011;14204;51.262;5.488;2024-01-11T11:51:25;41.00;;;20.30;;
26536;SDS011;14204;51.262;5.488;2024-01-11T11:53:51;43.90;;;21.67;;
26536;SDS011;14204;51.262;5.488;2024-01-11T11:56:18;38.47;;;20.25;;
26536;SDS011;14204;51.262;5.488;2024-01-11T11:58:45;41.97;;;21.15;;
26536;SDS011;14204;51.262;5.488;2024-01-11T12:01:13;41.50;;;20.27;;
26536;SDS011;14204;51.262;5.488;2024-01-11T12:03:41;37.78;;;20.73;;
26536;SDS011;14204;51.262;5.488;2024-01-11T12:06:07;38.28;;;20.45;;
26536;SDS011;14204;51.262;5.488;2024-01-11T12:08:35;42.13;;;21.55;;
26536;SDS011;14204;51.262;5.488;2024-01-11T12:11:02;41.42;;;21.58;;
26536;SDS011;14204;51.262;5.488;2024-01-11T12:13:32;40.90;;;22.13;;
26536;SDS011;14204;51.262;5.488;2024-01-11T12:15:59;41.40;;;21.50;;
26536;SDS011;14204;51.262;5.488;2024-01-11T12:18:25;38.55;;;20.02;;
26536;SDS011;14204;51.262;5.488;2024-01-11T12:20:51;36.65;;;18.45;;
26536;SDS011;14204;51.262;5.488;2024-01-11T12:23:19;40.55;;;21.02;;
26536;SDS011;14204;51.262;5.488;2024-01-11T12:25:45;37.63;;;19.55;;
26536;SDS011;14204;51.262;5.488;2024-01-11T12:28:12;40.05;;;19.17;;
26536;SDS011;14204;51.262;5.488;2024-01-11T12:30:38;36.70;;;18.58;;
26536;SDS011;14204;51.262;5.488;2024-01-11T12:33:04;39.90;;;19.60;;
26536;SDS011;14204;51.262;5.488;2024-01-11T12:35:30;41.92;;;19.55;;
26536;SDS011;14204;51.262;5.488;2024-01-11T12:38:01;40.28;;;18.38;;
26536;SDS011;14204;51.262;5.488;2024-01-11T12:40:35;35.38;;;18.80;;
26536;SDS011;14204;51.262;5.488;2024-01-11T12:43:05;35.92;;;18.70;;
26536;SDS011;14204;51.262;5.488;2024-01-11T12:45:32;39.65;;;18.55;;
26536;SDS011;14204;51.262;5.488;2024-01-11T12:48:02;36.20;;;18.40;;
26536;SDS011;14204;51.262;5.488;2024-01-11T12:50:29;37.85;;;18.23;;
26536;SDS011;14204;51.262;5.488;2024-01-11T12:53:06;40.45;;;19.13;;
26536;SDS011;14204;51.262;5.488;2024-01-11T12:55:48;36.25;;;19.48;;
26536;SDS011;14204;51.262;5.488;2024-01-11T12:58:26;38.33;;;19.88;;
26536;SDS011;14204;51.262;5.488;2024-01-11T13:00:52;40.05;;;19.50;;
26536;SDS011;14204;51.262;5.488;2024-01-11T13:03:19;46.65;;;20.20;;
26536;SDS011;14204;51.262;5.488;2024-01-11T13:05:45;40.33;;;19.38;;
26536;SDS011;14204;51.262;5.488;2024-01-11T13:08:11;38.63;;;19.67;;
26536;SDS011;14204;51.262;5.488;2024-01-11T13:10:37;40.85;;;20.85;;
26536;SDS011;14204;51.262;5.488;2024-01-11T13:13:03;38.65;;;21.23;;
26536;SDS011;14204;51.262;5.488;2024-01-11T13:15:30;44.58;;;21.33;;
26536;SDS011;14204;51.262;5.488;2024-01-11T13:17:57;40.80;;;20.60;;
26536;SDS011;14204;51.262;5.488;2024-01-11T13:20:23;42.88;;;20.67;;
26536;SDS011;14204;51.262;5.488;2024-01-11T13:25:41;40.10;;;20.42;;
26536;SDS011;14204;51.262;5.488;2024-01-11T13:28:08;49.53;;;23.35;;
26536;SDS011;14204;51.262;5.488;2024-01-11T13:30:36;48.10;;;22.23;;
26536;SDS011;14204;51.262;5.488;2024-01-11T13:33:04;42.53;;;21.67;;
26536;SDS011;14204;51.262;5.488;2024-01-11T13:35:30;45.60;;;22.48;;
26536;SDS011;14204;51.262;5.488;2024-01-11T13:37:55;47.72;;;23.85;;
26536;SDS011;14204;51.262;5.488;2024-01-11T13:40:21;43.83;;;23.25;;
26536;SDS011;14204;51.262;5.488;2024-01-11T13:42:47;48.50;;;24.38;;
26536;SDS011;14204;51.262;5.488;2024-01-11T13:45:12;44.80;;;23.13;;
26536;SDS011;14204;51.262;5.488;2024-01-11T13:47:38;44.47;;;22.08;;
26536;SDS011;14204;51.262;5.488;2024-01-11T13:50:04;44.63;;;22.27;;
26536;SDS011;14204;51.262;5.488;2024-01-11T13:52:30;39.53;;;21.52;;
26536;SDS011;14204;51.262;5.488;2024-01-11T13:54:55;47.78;;;23.13;;
26536;SDS011;14204;51.262;5.488;2024-01-11T13:57:21;45.20;;;23.20;;
26536;SDS011;14204;51.262;5.488;2024-01-11T13:59:47;46.38;;;22.15;;
26536;SDS011;14204;51.262;5.488;2024-01-11T14:02:14;49.25;;;24.15;;
26536;SDS011;14204;51.262;5.488;2024-01-11T14:04:40;49.30;;;21.95;;
26536;SDS011;14204;51.262;5.488;2024-01-11T14:07:05;44.08;;;22.80;;
26536;SDS011;14204;51.262;5.488;2024-01-11T14:09:31;51.45;;;24.20;;
26536;SDS011;14204;51.262;5.488;2024-01-11T14:11:57;49.03;;;23.95;;
26536;SDS011;14204;51.262;5.488;2024-01-11T14:14:23;43.15;;;23.42;;
26536;SDS011;14204;51.262;5.488;2024-01-11T14:16:48;47.25;;;22.58;;
26536;SDS011;14204;51.262;5.488;2024-01-11T14:19:16;50.40;;;23.73;;
26536;SDS011;14204;51.262;5.488;2024-01-11T14:21:42;52.17;;;26.10;;